Terminal Aerodrome Forecast
Issued by NWS

Home | Current Version | Previous Version | Text Only | Print | Product List | Glossary On
Versions: 1 2 3 4 5 6 7 8 9 10 11 12 13 14 15 16
000
FTUS41 KBOX 270540
TAFFMH
TAF
KFMH 270540Z 2706/2806 00000KT 1/4SM DZ FG VCSH OVC002
     FM271200 00000KT 1SM -DZ BR OVC003
     FM271400 00000KT 3SM BR OVC008
     FM271800 21005KT P6SM BKN008
     FM272300 20008KT 3SM BR BKN045
     FM280500 19006KT 2SM BR OVC010=

USA.gov is the U.S. government's official web portal to all federal, state and local government web resources and services.